Time,TemperatureF,DewpointF,PressureIn,WindDirection,WindDirectionDegrees,WindSpeedMPH,WindSpeedGustMPH,Humidity,HourlyPrecipIn,Conditions,Clouds,dailyrainin,SolarRadiationWatts/m^2,SoftwareType,DateUTC
2013-06-15 00:02:00,75.0,73.0,-100.00,ESE,118,1.0,3.0,93,0.00,,,0.49,0.000000,,2013-06-15 04:02:00,
2013-06-15 00:12:00,75.0,73.0,-100.00,ESE,118,1.0,3.0,93,0.00,,,0.49,0.000000,,2013-06-15 04:12:00,
2013-06-15 00:22:00,75.0,73.0,-100.00,ESE,118,1.0,3.0,93,0.00,,,0.49,0.000000,,2013-06-15 04:22:00,
2013-06-15 00:34:00,75.0,73.0,-100.00,ESE,118,1.0,3.0,93,0.00,,,0.49,0.000000,,2013-06-15 04:34:00,
2013-06-15 01:02:00,75.0,73.0,-100.00,South,177,2.0,3.0,93,0.00,,,0.49,0.000000,,2013-06-15 05:02:00,
2013-06-15 01:12:00,75.0,73.0,-100.00,South,177,2.0,3.0,93,0.00,,,0.49,0.000000,,2013-06-15 05:12:00,
2013-06-15 01:22:00,75.0,73.0,-100.00,South,177,2.0,3.0,93,0.00,,,0.49,0.000000,,2013-06-15 05:22:00,
2013-06-15 01:34:00,75.0,73.0,-100.00,South,177,2.0,3.0,93,0.00,,,0.49,0.000000,,2013-06-15 05:34:00,
2013-06-15 02:02:00,75.0,73.0,-100.00,SSE,168,2.0,3.0,95,0.00,,,0.49,0.000000,,2013-06-15 06:02:00,
2013-06-15 02:12:00,75.0,73.0,-100.00,SSE,168,2.0,3.0,95,0.00,,,0.49,0.000000,,2013-06-15 06:12:00,
2013-06-15 02:24:00,75.0,73.0,-100.00,SSE,168,2.0,3.0,95,0.00,,,0.49,0.000000,,2013-06-15 06:24:00,
2013-06-15 02:33:00,75.0,73.0,-100.00,SSE,168,2.0,3.0,95,0.00,,,0.49,0.000000,,2013-06-15 06:33:00,
2013-06-15 03:01:00,78.0,76.0,-100.00,WSW,250,3.0,6.0,93,0.00,,,0.49,0.000000,,2013-06-15 07:01:00,
2013-06-15 03:11:00,78.0,76.0,-100.00,WSW,250,3.0,6.0,93,0.00,,,0.49,0.000000,,2013-06-15 07:11:00,
2013-06-15 03:23:00,78.0,76.0,-100.00,WSW,250,3.0,6.0,93,0.00,,,0.49,0.000000,,2013-06-15 07:23:00,
2013-06-15 03:33:00,78.0,76.0,-100.00,WSW,250,3.0,6.0,93,0.00,,,0.49,0.000000,,2013-06-15 07:33:00,
2013-06-15 04:02:00,79.0,75.0,-100.00,WSW,245,3.0,7.0,87,0.00,,,0.49,0.000000,,2013-06-15 08:02:00,
2013-06-15 04:11:00,79.0,75.0,-100.00,WSW,245,3.0,7.0,87,0.00,,,0.49,0.000000,,2013-06-15 08:11:00,
2013-06-15 04:22:00,79.0,75.0,-100.00,WSW,245,3.0,7.0,87,0.00,,,0.49,0.000000,,2013-06-15 08:22:00,
2013-06-15 04:33:00,79.0,75.0,-100.00,WSW,245,3.0,7.0,87,0.00,,,0.49,0.000000,,2013-06-15 08:33:00,
2013-06-15 05:02:00,79.0,74.0,-100.00,WSW,247,3.0,6.0,85,0.00,,,0.49,0.000000,,2013-06-15 09:02:00,
2013-06-15 05:12:00,79.0,74.0,-100.00,WSW,247,3.0,6.0,85,0.00,,,0.49,0.000000,,2013-06-15 09:12:00,
2013-06-15 05:22:00,79.0,74.0,-100.00,WSW,247,3.0,6.0,85,0.00,,,0.49,0.000000,,2013-06-15 09:22:00,
2013-06-15 05:33:00,79.0,74.0,-100.00,WSW,247,3.0,6.0,85,0.00,,,0.49,0.000000,,2013-06-15 09:33:00,
2013-06-15 05:52:00,78.0,74.0,-100.00,WNW,297,2.0,5.0,88,0.00,,,0.49,0.000000,,2013-06-15 09:52:00,
2013-06-15 06:02:00,78.0,74.0,-100.00,WNW,297,2.0,5.0,88,0.00,,,0.49,0.000000,,2013-06-15 10:02:00,
2013-06-15 06:12:00,78.0,74.0,-100.00,WNW,297,2.0,5.0,88,0.00,,,0.49,0.000000,,2013-06-15 10:12:00,
2013-06-15 06:23:00,78.0,74.0,-100.00,WNW,297,2.0,5.0,88,0.00,,,0.49,0.000000,,2013-06-15 10:23:00,
2013-06-15 06:34:00,78.0,74.0,-100.00,WNW,297,2.0,5.0,88,0.00,,,0.49,0.000000,,2013-06-15 10:34:00,
2013-06-15 07:02:00,77.0,74.0,-100.00,NNW,345,2.0,4.0,90,0.00,,,0.49,0.000000,,2013-06-15 11:02:00,
2013-06-15 07:12:00,77.0,74.0,-100.00,NNW,345,2.0,4.0,90,0.00,,,0.49,0.000000,,2013-06-15 11:12:00,
2013-06-15 07:22:00,77.0,74.0,-100.00,NNW,345,2.0,4.0,90,0.00,,,0.49,0.000000,,2013-06-15 11:22:00,
2013-06-15 07:33:00,77.0,74.0,-100.00,NNW,345,2.0,4.0,90,0.00,,,0.49,0.000000,,2013-06-15 11:33:00,
2013-06-15 08:02:00,80.0,76.0,-100.00,North,352,3.0,5.0,87,0.00,,,0.49,42.000000,,2013-06-15 12:02:00,
2013-06-15 08:12:00,80.0,76.0,-100.00,North,352,3.0,5.0,87,0.00,,,0.49,42.000000,,2013-06-15 12:12:00,
2013-06-15 08:22:00,80.0,76.0,-100.00,North,352,3.0,5.0,87,0.00,,,0.49,42.000000,,2013-06-15 12:22:00,
2013-06-15 08:33:00,80.0,76.0,-100.00,North,352,3.0,5.0,87,0.00,,,0.49,42.000000,,2013-06-15 12:33:00,
2013-06-15 09:02:00,85.0,73.0,-100.00,North,360,4.0,7.0,68,0.00,,,0.49,224.000000,,2013-06-15 13:02:00,
2013-06-15 09:11:00,85.0,73.0,-100.00,North,360,4.0,7.0,68,0.00,,,0.49,224.000000,,2013-06-15 13:11:00,
2013-06-15 09:22:00,85.0,73.0,-100.00,North,360,4.0,7.0,68,0.00,,,0.49,224.000000,,2013-06-15 13:22:00,
2013-06-15 09:32:00,85.0,73.0,-100.00,North,360,4.0,7.0,68,0.00,,,0.49,224.000000,,2013-06-15 13:32:00,
2013-06-15 10:02:00,87.0,75.0,-100.00,North,9,4.0,8.0,67,0.00,,,0.49,414.000000,,2013-06-15 14:02:00,
2013-06-15 10:12:00,87.0,75.0,-100.00,North,9,4.0,8.0,67,0.00,,,0.49,414.000000,,2013-06-15 14:12:00,
2013-06-15 10:22:00,87.0,75.0,-100.00,North,9,4.0,8.0,67,0.00,,,0.49,414.000000,,2013-06-15 14:22:00,
2013-06-15 10:34:00,87.0,75.0,-100.00,North,9,4.0,8.0,67,0.00,,,0.49,414.000000,,2013-06-15 14:34:00,
2013-06-15 11:02:00,88.0,74.0,-100.00,NNE,19,5.0,8.0,63,0.00,,,0.49,537.000000,,2013-06-15 15:02:00,
2013-06-15 11:11:00,88.0,74.0,-100.00,NNE,19,5.0,8.0,63,0.00,,,0.49,537.000000,,2013-06-15 15:11:00,
2013-06-15 11:22:00,88.0,74.0,-100.00,NNE,19,5.0,8.0,63,0.00,,,0.49,537.000000,,2013-06-15 15:22:00,
2013-06-15 11:33:00,88.0,74.0,-100.00,NNE,19,5.0,8.0,63,0.00,,,0.49,537.000000,,2013-06-15 15:33:00,
2013-06-15 12:01:00,89.0,73.0,-100.00,NE,36,5.0,8.0,60,0.00,,,0.49,655.000000,,2013-06-15 16:01:00,
2013-06-15 12:11:00,89.0,73.0,-100.00,NE,36,5.0,8.0,60,0.00,,,0.49,655.000000,,2013-06-15 16:11:00,
2013-06-15 12:22:00,89.0,73.0,-100.00,NE,36,5.0,8.0,60,0.00,,,0.49,655.000000,,2013-06-15 16:22:00,
2013-06-15 12:33:00,89.0,73.0,-100.00,NE,36,5.0,8.0,60,0.00,,,0.49,655.000000,,2013-06-15 16:33:00,
2013-06-15 13:02:00,90.0,74.0,-100.00,NE,37,5.0,9.0,60,0.00,,,0.49,875.000000,,2013-06-15 17:02:00,
2013-06-15 13:12:00,90.0,74.0,-100.00,NE,37,5.0,9.0,60,0.00,,,0.49,875.000000,,2013-06-15 17:12:00,
2013-06-15 13:22:00,90.0,74.0,-100.00,NE,37,5.0,9.0,60,0.00,,,0.49,875.000000,,2013-06-15 17:22:00,
2013-06-15 13:32:00,90.0,74.0,-100.00,NE,37,5.0,9.0,60,0.00,,,0.49,875.000000,,2013-06-15 17:32:00,
2013-06-15 14:01:00,89.0,73.0,-100.00,NE,50,5.0,10.0,60,0.00,,,0.17,912.000000,,2013-06-15 18:01:00,
2013-06-15 14:12:00,89.0,73.0,-100.00,NE,50,5.0,10.0,60,0.00,,,0.17,912.000000,,2013-06-15 18:12:00,
2013-06-15 14:22:00,89.0,73.0,-100.00,NE,50,5.0,10.0,60,0.00,,,0.17,912.000000,,2013-06-15 18:22:00,
2013-06-15 14:32:00,89.0,73.0,-100.00,NE,50,5.0,10.0,60,0.00,,,0.17,912.000000,,2013-06-15 18:32:00,
2013-06-15 15:02:00,89.0,74.0,-100.00,ENE,59,6.0,10.0,62,0.00,,,0.17,915.000000,,2013-06-15 19:02:00,
2013-06-15 15:12:00,89.0,74.0,-100.00,ENE,59,6.0,10.0,62,0.00,,,0.17,915.000000,,2013-06-15 19:12:00,
2013-06-15 15:22:00,89.0,74.0,-100.00,ENE,59,6.0,10.0,62,0.00,,,0.17,915.000000,,2013-06-15 19:22:00,
2013-06-15 15:33:00,89.0,74.0,-100.00,ENE,59,6.0,10.0,62,0.00,,,0.17,915.000000,,2013-06-15 19:33:00,
2013-06-15 16:02:00,90.0,75.0,-100.00,NE,44,6.0,10.0,61,0.00,,,0.17,801.000000,,2013-06-15 20:02:00,
2013-06-15 16:11:00,90.0,75.0,-100.00,NE,44,6.0,10.0,61,0.00,,,0.17,801.000000,,2013-06-15 20:11:00,
2013-06-15 16:22:00,90.0,75.0,-100.00,NE,44,6.0,10.0,61,0.00,,,0.17,801.000000,,2013-06-15 20:22:00,
2013-06-15 16:33:00,90.0,75.0,-100.00,NE,44,6.0,10.0,61,0.00,,,0.17,801.000000,,2013-06-15 20:33:00,
2013-06-15 17:02:00,90.0,74.0,-100.00,NNE,32,5.0,9.0,59,0.00,,,0.17,706.000000,,2013-06-15 21:02:00,
2013-06-15 17:12:00,90.0,74.0,-100.00,NNE,32,5.0,9.0,59,0.00,,,0.17,706.000000,,2013-06-15 21:12:00,
2013-06-15 17:22:00,90.0,74.0,-100.00,NNE,32,5.0,9.0,59,0.00,,,0.17,706.000000,,2013-06-15 21:22:00,
2013-06-15 17:34:00,90.0,74.0,-100.00,NNE,32,5.0,9.0,59,0.00,,,0.17,706.000000,,2013-06-15 21:34:00,
2013-06-15 18:01:00,88.0,73.0,-100.00,NE,47,5.0,7.0,61,0.00,,,0.17,465.000000,,2013-06-15 22:01:00,
2013-06-15 18:11:00,88.0,73.0,-100.00,NE,47,5.0,7.0,61,0.00,,,0.17,465.000000,,2013-06-15 22:11:00,
2013-06-15 18:22:00,88.0,73.0,-100.00,NE,47,5.0,7.0,61,0.00,,,0.17,465.000000,,2013-06-15 22:22:00,
2013-06-15 18:33:00,88.0,73.0,-100.00,NE,47,5.0,7.0,61,0.00,,,0.17,465.000000,,2013-06-15 22:33:00,
2013-06-15 19:02:00,87.0,72.0,-100.00,NNE,17,3.0,8.0,62,0.00,,,0.00,204.000000,,2013-06-15 23:02:00,
2013-06-15 19:12:00,87.0,72.0,-100.00,NNE,17,3.0,8.0,62,0.00,,,0.00,204.000000,,2013-06-15 23:12:00,
2013-06-15 19:22:00,87.0,72.0,-100.00,NNE,17,3.0,8.0,62,0.00,,,0.00,204.000000,,2013-06-15 23:22:00,
2013-06-15 19:33:00,87.0,72.0,-100.00,NNE,17,3.0,8.0,62,0.00,,,0.00,204.000000,,2013-06-15 23:33:00,
2013-06-15 20:02:00,86.0,73.0,-100.00,NE,55,3.0,6.0,65,0.00,,,0.00,143.000000,,2013-06-16 00:02:00,
2013-06-15 20:11:00,86.0,73.0,-100.00,NE,55,3.0,6.0,65,0.00,,,0.00,143.000000,,2013-06-16 00:11:00,
2013-06-15 20:22:00,86.0,73.0,-100.00,NE,55,3.0,6.0,65,0.00,,,0.00,143.000000,,2013-06-16 00:22:00,
2013-06-15 20:34:00,86.0,73.0,-100.00,NE,55,3.0,6.0,65,0.00,,,0.00,143.000000,,2013-06-16 00:34:00,
2013-06-15 21:02:00,81.0,73.0,-100.00,North,353,2.0,4.0,76,0.00,,,0.00,19.000000,,2013-06-16 01:02:00,
2013-06-15 21:12:00,81.0,73.0,-100.00,North,353,2.0,4.0,76,0.00,,,0.00,19.000000,,2013-06-16 01:12:00,
2013-06-15 21:22:00,81.0,73.0,-100.00,North,353,2.0,4.0,76,0.00,,,0.00,19.000000,,2013-06-16 01:22:00,
2013-06-15 21:33:00,81.0,73.0,-100.00,North,353,2.0,4.0,76,0.00,,,0.00,19.000000,,2013-06-16 01:33:00,
2013-06-15 22:02:00,79.0,72.0,-100.00,East,79,3.0,5.0,80,0.00,,,0.00,0.000000,,2013-06-16 02:02:00,
2013-06-15 22:12:00,79.0,72.0,-100.00,East,79,3.0,5.0,80,0.00,,,0.00,0.000000,,2013-06-16 02:12:00,
2013-06-15 22:22:00,79.0,72.0,-100.00,East,79,3.0,5.0,80,0.00,,,0.00,0.000000,,2013-06-16 02:22:00,
2013-06-15 22:33:00,79.0,72.0,-100.00,East,79,3.0,5.0,80,0.00,,,0.00,0.000000,,2013-06-16 02:33:00,
2013-06-15 23:02:00,79.0,73.0,-100.00,ESE,115,2.0,4.0,81,0.00,,,0.00,0.000000,,2013-06-16 03:02:00,
2013-06-15 23:12:00,79.0,73.0,-100.00,ESE,115,2.0,4.0,81,0.00,,,0.00,0.000000,,2013-06-16 03:12:00,
2013-06-15 23:22:00,79.0,73.0,-100.00,ESE,115,2.0,4.0,81,0.00,,,0.00,0.000000,,2013-06-16 03:22:00,
2013-06-15 23:34:00,79.0,73.0,-100.00,ESE,115,2.0,4.0,81,0.00,,,0.00,0.000000,,2013-06-16 03:34:00,